Time;durP1;ratioP1;P1;durP2;ratioP2;P2;SDS_P1;SDS_P2;PMS_P1;PMS_P2;Temp;Humidity;BMP_temperature;BMP_pressure;BME280_temperature;BME280_humidity;BME280_pressure;Samples;Min_cycle;Max_cycle;Signal;HPM_P1;HPM_P2
2022/01/06 00:00:51;;;;;;;4.10;1.13;;;;;;;19.53;44.90;100678.06;4227003;28;20050;-52
2022/01/06 00:02:52;;;;;;;2.65;0.80;;;;;;;19.54;44.60;100678.88;4227105;28;20035;-53
2022/01/06 00:04:54;;;;;;;3.20;0.90;;;;;;;19.55;44.83;100675.00;4229900;27;20478;-56
2022/01/06 00:06:55;;;;;;;1.58;0.80;;;;;;;19.54;44.67;100678.88;4227983;28;20047;-53
2022/01/06 00:08:59;;;;;;;4.75;1.30;;;;;;;19.53;44.88;100677.22;4235763;27;20039;-54
2022/01/06 00:11:01;;;;;;;2.85;1.05;;;;;;;19.53;44.71;100674.47;4233989;28;20040;-54
2022/01/06 00:13:09;;;;;;;3.38;1.10;;;;;;;19.52;44.54;100676.41;4243323;28;20035;-52
2022/01/06 00:17:57;;;;;;;2.65;1.00;;;;;;;19.52;44.83;100689.44;4232098;28;20639;-48
2022/01/06 00:24:42;;;;;;;1.90;1.08;;;;;;;19.54;44.52;100678.88;4235487;27;20096;-53
2022/01/06 00:26:48;;;;;;;2.35;0.90;;;;;;;19.53;44.41;100682.78;4235089;28;20100;-54
2022/01/06 00:28:50;;;;;;;3.25;1.60;;;;;;;19.53;44.38;100671.69;4229336;28;20035;-53
2022/01/06 00:30:52;;;;;;;2.45;1.10;;;;;;;19.50;44.53;100677.78;4229866;28;20039;-52
2022/01/06 00:32:54;;;;;;;2.80;0.93;;;;;;;19.52;44.45;100689.44;4243711;28;20044;-53
2022/01/06 00:34:55;;;;;;;3.33;0.90;;;;;;;19.52;44.83;100681.13;4230026;28;20083;-54
2022/01/06 00:36:56;;;;;;;1.88;0.80;;;;;;;19.50;44.35;100688.88;4242442;28;20111;-54
2022/01/06 00:38:58;;;;;;;4.55;0.90;;;;;;;19.51;44.40;100679.44;4228402;28;20501;-52
2022/01/06 00:40:59;;;;;;;8.45;1.10;;;;;;;19.47;44.60;100678.31;4230184;28;20425;-52
2022/01/06 00:43:03;;;;;;;3.40;1.50;;;;;;;19.51;44.43;100684.97;4231182;28;20036;-49
2022/01/06 00:45:05;;;;;;;1.92;1.00;;;;;;;19.48;44.50;100685.56;4228781;28;20089;-49
2022/01/06 00:47:06;;;;;;;2.70;1.10;;;;;;;19.52;44.59;100687.50;4233961;28;20044;-51
2022/01/06 00:49:08;;;;;;;3.10;0.88;;;;;;;19.53;44.46;100699.44;4241238;28;20039;-50
2022/01/06 00:51:09;;;;;;;2.85;1.10;;;;;;;19.53;44.65;100682.78;4242779;28;20048;-53
2022/01/06 00:53:11;;;;;;;4.32;1.15;;;;;;;19.53;44.44;100680.00;4233597;28;20031;-52
2022/01/06 00:55:13;;;;;;;5.10;1.20;;;;;;;19.51;44.37;100680.25;4234696;28;20368;-56
2022/01/06 00:57:14;;;;;;;4.25;1.10;;;;;;;19.52;44.62;100681.13;4239372;28;20096;-53
2022/01/06 00:59:16;;;;;;;3.22;1.05;;;;;;;19.53;44.34;100675.28;4243951;28;20101;-53
2022/01/06 01:01:17;;;;;;;2.88;1.13;;;;;;;19.52;44.67;100670.03;4237370;28;20039;-57
2022/01/06 01:03:21;;;;;;;3.78;1.02;;;;;;;19.51;44.36;100674.72;4228754;28;20080;-56
2022/01/06 01:05:23;;;;;;;4.13;1.48;;;;;;;19.49;44.52;100671.41;4229775;28;20072;-54
2022/01/06 01:07:24;;;;;;;6.35;1.20;;;;;;;19.46;44.50;100657.25;4231094;28;20040;-53
2022/01/06 01:09:26;;;;;;;3.42;1.02;;;;;;;19.50;44.48;100669.44;4230883;28;20095;-54
2022/01/06 01:11:27;;;;;;;4.70;1.50;;;;;;;19.51;44.74;100668.34;4235758;28;20547;-56
2022/01/06 01:13:32;;;;;;;2.67;1.20;;;;;;;19.48;44.92;100663.34;4235204;28;20061;-54
2022/01/06 01:15:41;;;;;;;3.65;1.33;;;;;;;19.48;44.48;100660.59;4238058;28;20081;-55
2022/01/06 01:17:45;;;;;;;5.10;1.20;;;;;;;19.46;44.49;100660.00;4235801;28;20039;-56
2022/01/06 01:19:46;;;;;;;4.35;1.20;;;;;;;19.46;44.94;100658.06;4238798;27;20069;-55
2022/01/06 01:21:48;;;;;;;7.75;1.30;;;;;;;19.45;44.67;100655.56;4236477;27;20497;-53
2022/01/06 01:23:50;;;;;;;3.05;1.30;;;;;;;19.45;44.60;100663.91;4236643;27;20019;-56
2022/01/06 01:26:00;;;;;;;3.55;1.38;;;;;;;19.44;44.75;100659.47;4241594;27;20503;-54
2022/01/06 01:28:03;;;;;;;5.10;1.42;;;;;;;19.45;44.71;100652.81;4231831;27;20547;-55
2022/01/06 01:30:10;;;;;;;4.70;1.17;;;;;;;19.44;44.49;100656.69;4229187;27;20097;-53
2022/01/06 01:32:12;;;;;;;3.10;0.90;;;;;;;19.39;44.64;100642.81;4236128;27;20456;-58
2022/01/06 01:34:21;;;;;;;2.35;1.20;;;;;;;19.41;44.85;100651.69;4244190;27;20075;-57
2022/01/06 01:36:22;;;;;;;4.03;0.95;;;;;;;19.39;44.67;100648.38;4246218;27;20035;-54
2022/01/06 01:38:24;;;;;;;5.22;1.33;;;;;;;19.38;45.04;100643.91;4233646;27;20106;-54
2022/01/06 01:40:26;;;;;;;1.83;1.00;;;;;;;19.33;44.94;100635.59;4238316;27;20044;-54
2022/01/06 01:42:28;;;;;;;1.80;1.00;;;;;;;19.36;44.94;100635.88;4231282;27;20555;-52
2022/01/06 01:44:32;;;;;;;2.13;1.02;;;;;;;19.37;45.02;100645.03;4238488;27;20035;-54
2022/01/06 01:46:42;;;;;;;2.58;0.98;;;;;;;19.36;44.62;100646.16;4248734;27;20035;-53
2022/01/06 01:48:51;;;;;;;2.35;1.20;;;;;;;19.36;44.87;100643.38;4225623;27;20052;-55
2022/01/06 01:50:52;;;;;;;3.40;1.20;;;;;;;19.35;44.82;100634.22;4227297;27;20043;-55
2022/01/06 01:52:58;;;;;;;2.35;1.17;;;;;;;19.35;44.71;100631.44;4233692;27;20023;-54
2022/01/06 01:54:59;;;;;;;2.08;1.10;;;;;;;19.32;45.04;100620.88;4232105;28;20479;-50
2022/01/06 01:57:01;;;;;;;1.42;1.00;;;;;;;19.33;44.68;100628.09;4231905;28;20036;-54
2022/01/06 01:59:03;;;;;;;1.25;1.00;;;;;;;19.34;44.89;100627.00;4231123;28;20092;-54
2022/01/06 02:01:05;;;;;;;1.77;0.90;;;;;;;19.31;45.03;100624.78;4234512;27;20043;-54
2022/01/06 02:03:07;;;;;;;1.38;0.95;;;;;;;19.30;45.05;100626.72;4245386;27;20043;-50
2022/01/06 02:05:09;;;;;;;1.52;1.20;;;;;;;19.24;45.04;100616.75;4216422;27;20036;-54
2022/01/06 02:07:13;;;;;;;2.47;1.15;;;;;;;19.29;44.87;100624.25;4228390;28;20101;-54
2022/01/06 02:09:15;;;;;;;5.27;1.37;;;;;;;19.29;44.66;100622.28;4231220;28;20108;-54
2022/01/06 02:11:19;;;;;;;3.80;1.30;;;;;;;19.30;44.74;100621.19;4232185;28;20112;-53
2022/01/06 02:13:27;;;;;;;1.90;0.93;;;;;;;19.30;44.91;100612.03;4230845;28;20039;-51
2022/01/06 02:15:29;;;;;;;2.25;1.15;;;;;;;19.28;44.82;100612.28;4231215;28;20092;-54
2022/01/06 02:17:31;;;;;;;1.42;1.13;;;;;;;19.29;45.05;100618.69;4232472;28;20048;-55
2022/01/06 02:19:32;;;;;;;2.53;1.17;;;;;;;19.27;44.79;100618.94;4231238;28;20089;-53
2022/01/06 02:21:39;;;;;;;2.00;1.05;;;;;;;19.27;44.75;100612.56;4231392;28;20035;-55
2022/01/06 02:23:41;;;;;;;1.17;0.93;;;;;;;19.27;45.14;100621.72;4226115;27;20040;-55
2022/01/06 02:25:45;;;;;;;4.25;0.90;;;;;;;19.26;45.12;100603.41;4231343;28;20104;-55
2022/01/06 02:27:49;;;;;;;2.50;1.27;;;;;;;19.25;45.08;100604.53;4232034;28;20112;-51
2022/01/06 02:29:52;;;;;;;1.30;0.90;;;;;;;19.27;44.76;100601.47;4229721;28;20036;-54
2022/01/06 02:31:53;;;;;;;2.42;1.50;;;;;;;19.27;44.94;100604.25;4230361;28;20047;-56
2022/01/06 02:33:54;;;;;;;2.13;1.52;;;;;;;19.24;44.93;100597.34;4231111;28;20104;-52
2022/01/06 02:35:56;;;;;;;2.35;1.20;;;;;;;19.27;44.66;100607.84;4232051;28;20077;-53
2022/01/06 02:38:01;;;;;;;1.45;0.80;;;;;;;19.25;44.69;100607.31;4230439;28;20167;-55
2022/01/06 02:40:09;;;;;;;1.75;1.23;;;;;;;19.25;44.96;100609.25;4229621;28;20104;-54
2022/01/06 02:42:11;;;;;;;2.10;1.00;;;;;;;19.27;45.42;100605.06;4230644;28;20036;-55
2022/01/06 02:44:13;;;;;;;12.85;1.13;;;;;;;19.24;46.01;100596.47;4230904;28;20101;-54
2022/01/06 02:46:14;;;;;;;1.65;1.08;;;;;;;19.26;45.99;100608.97;4230713;28;20039;-55
2022/01/06 02:48:16;;;;;;;3.42;0.98;;;;;;;19.26;46.32;100600.66;4231395;28;20093;-50
2022/01/06 02:50:21;;;;;;;5.68;1.20;;;;;;;19.25;46.56;100596.22;4230477;28;20116;-52
2022/01/06 02:52:22;;;;;;;2.63;1.13;;;;;;;19.25;46.43;100593.44;4230450;28;20048;-51
2022/01/06 02:54:24;;;;;;;4.25;1.08;;;;;;;19.26;46.38;100599.81;4230581;28;20495;-55
2022/01/06 02:56:25;;;;;;;2.60;1.17;;;;;;;19.26;46.48;100606.19;4230260;28;20116;-55
2022/01/06 02:58:26;;;;;;;3.55;1.10;;;;;;;19.24;46.56;100594.56;4218123;28;20113;-54
2022/01/06 03:00:28;;;;;;;1.70;0.90;;;;;;;19.26;46.56;100594.28;4229908;28;20040;-52
2022/01/06 03:02:30;;;;;;;11.13;1.40;;;;;;;19.25;46.21;100590.66;4229230;28;20112;-52
2022/01/06 03:04:31;;;;;;;2.20;1.08;;;;;;;19.21;46.12;100585.94;4229095;28;20039;-54
2022/01/06 03:06:32;;;;;;;6.53;1.35;;;;;;;19.24;46.18;100586.25;4230632;28;20039;-52
2022/01/06 03:08:34;;;;;;;1.35;1.17;;;;;;;19.24;46.00;100586.25;4229861;28;20101;-55
2022/01/06 03:10:41;;;;;;;4.53;1.15;;;;;;;19.24;45.77;100582.59;4230469;28;20035;-56
2022/01/06 03:12:44;;;;;;;2.30;1.27;;;;;;;19.24;46.07;100580.69;4229763;28;20047;-52
2022/01/06 03:14:46;;;;;;;8.13;1.45;;;;;;;19.21;46.03;100578.47;4214926;28;20085;-56
2022/01/06 03:16:47;;;;;;;3.28;1.02;;;;;;;19.23;45.89;100583.72;4224365;27;20043;-55
2022/01/06 03:18:49;;;;;;;3.22;1.20;;;;;;;19.23;45.99;100576.22;4229600;28;20363;-52
2022/01/06 03:20:53;;;;;;;6.20;1.52;;;;;;;19.23;46.09;100578.16;4228166;28;20039;-55
2022/01/06 03:22:56;;;;;;;4.47;1.10;;;;;;;19.22;45.66;100571.78;4228162;27;20039;-56
2022/01/06 03:24:57;;;;;;;2.13;1.20;;;;;;;19.23;46.12;100567.91;4231780;27;20039;-53
2022/01/06 03:26:59;;;;;;;4.43;1.40;;;;;;;19.20;45.98;100568.47;4227545;27;20043;-53
2022/01/06 03:29:00;;;;;;;4.75;1.30;;;;;;;19.22;46.24;100570.97;4231536;27;20043;-55
2022/01/06 03:31:02;;;;;;;3.47;1.25;;;;;;;19.19;45.94;100569.56;4237372;27;20111;-52
2022/01/06 03:33:04;;;;;;;3.33;1.35;;;;;;;19.21;45.82;100575.69;4231115;27;20774;-53
2022/01/06 03:35:07;;;;;;;2.90;1.38;;;;;;;19.20;46.07;100574.03;4233855;27;20072;-54
2022/01/06 03:37:08;;;;;;;7.57;1.30;;;;;;;19.20;46.00;100573.19;4229849;27;20440;-55
2022/01/06 03:39:10;;;;;;;2.17;1.13;;;;;;;19.15;46.42;100564.84;4232957;27;20028;-53
2022/01/06 03:41:14;;;;;;;7.00;1.88;;;;;;;19.19;46.36;100566.78;4231015;27;20044;-53
2022/01/06 03:43:15;;;;;;;4.47;1.57;;;;;;;19.18;46.27;100567.91;4234843;27;20084;-54
2022/01/06 03:45:18;;;;;;;6.45;1.25;;;;;;;19.19;46.53;100577.06;4236485;27;20092;-55
2022/01/06 03:47:20;;;;;;;8.05;1.50;;;;;;;19.20;46.38;100565.72;4231402;27;20093;-53
2022/01/06 03:49:22;;;;;;;2.47;1.00;;;;;;;19.18;46.29;100576.22;4240962;27;20043;-54
2022/01/06 03:51:23;;;;;;;6.57;1.70;;;;;;;19.18;46.34;100569.84;4236455;27;20036;-52
2022/01/06 03:53:25;;;;;;;4.10;1.52;;;;;;;19.18;46.49;100573.47;4231482;27;20113;-55
2022/01/06 03:55:26;;;;;;;4.78;1.33;;;;;;;19.17;46.30;100576.53;4221457;28;20073;-54
2022/01/06 03:57:27;;;;;;;5.97;1.77;;;;;;;19.17;46.52;100582.06;4237685;27;20035;-54
2022/01/06 03:59:29;;;;;;;3.13;1.58;;;;;;;19.18;46.69;100581.78;4241231;27;20035;-52
2022/01/06 04:01:31;;;;;;;11.75;1.55;;;;;;;19.18;46.62;100592.88;4231158;27;20027;-52
2022/01/06 04:03:32;;;;;;;3.05;1.38;;;;;;;19.18;46.27;100570.69;4232424;27;20543;-49
2022/01/06 04:05:34;;;;;;;4.53;1.60;;;;;;;19.17;46.52;100579.28;4233678;28;20539;-50
2022/01/06 04:07:36;;;;;;;7.10;1.52;;;;;;;19.17;46.51;100585.66;4242122;27;20036;-55
2022/01/06 04:09:37;;;;;;;4.10;1.60;;;;;;;19.15;46.46;100565.72;4240864;27;20048;-50
2022/01/06 04:11:39;;;;;;;2.65;1.55;;;;;;;19.18;46.27;100575.41;4214389;28;20043;-50
2022/01/06 04:13:43;;;;;;;5.20;1.38;;;;;;;19.17;46.45;100573.75;4230327;28;20092;-53
2022/01/06 04:15:45;;;;;;;2.97;1.27;;;;;;;19.14;46.81;100561.25;4216435;28;20039;-53
2022/01/06 04:17:47;;;;;;;3.30;1.58;;;;;;;19.16;46.47;100567.38;4225902;28;20073;-50
2022/01/06 04:19:48;;;;;;;6.07;1.52;;;;;;;19.17;46.26;100569.03;4220397;28;20044;-54
2022/01/06 04:21:50;;;;;;;2.20;1.40;;;;;;;19.18;46.30;100580.94;4218737;28;20092;-53
2022/01/06 04:23:54;;;;;;;2.75;1.52;;;;;;;19.15;46.32;100578.72;4233042;28;20104;-50
2022/01/06 04:25:58;;;;;;;4.60;1.40;;;;;;;19.15;46.47;100575.94;4238377;28;20099;-52
2022/01/06 04:27:59;;;;;;;3.00;1.30;;;;;;;19.09;46.53;100569.56;4230792;28;20043;-53
2022/01/06 04:30:05;;;;;;;4.60;2.70;;;;;;;19.14;46.33;100575.13;4240733;28;20135;-49
2022/01/06 04:32:07;;;;;;;4.03;1.45;;;;;;;19.16;46.69;100574.88;4235367;28;20027;-55
2022/01/06 04:34:08;;;;;;;4.13;1.55;;;;;;;19.14;46.48;100575.13;4219192;28;20104;-50
2022/01/06 04:36:10;;;;;;;2.30;1.30;;;;;;;19.13;46.72;100561.53;4239845;28;20024;-54
2022/01/06 04:38:12;;;;;;;2.58;1.00;;;;;;;19.12;46.55;100559.88;4231128;28;20108;-54
2022/01/06 04:40:13;;;;;;;2.78;1.40;;;;;;;19.12;46.98;100566.25;4242253;28;20039;-56
2022/01/06 04:42:14;;;;;;;4.13;1.58;;;;;;;19.11;46.51;100566.53;4242664;28;20099;-54
2022/01/06 04:44:16;;;;;;;3.92;1.65;;;;;;;19.11;46.56;100570.16;4231529;28;20729;-52
2022/01/06 04:46:19;;;;;;;4.00;1.27;;;;;;;19.10;46.87;100571.22;4231370;28;20100;-51
2022/01/06 04:48:26;;;;;;;3.45;1.15;;;;;;;19.09;46.76;100572.34;4237296;28;20100;-54
2022/01/06 04:50:28;;;;;;;5.45;1.42;;;;;;;19.09;47.04;100577.91;4243574;28;20111;-52
2022/01/06 04:52:29;;;;;;;4.03;1.50;;;;;;;19.09;46.51;100577.91;4244392;28;20539;-56
2022/01/06 04:54:31;;;;;;;1.75;1.40;;;;;;;19.08;46.76;100565.16;4243456;27;20036;-54
2022/01/06 04:56:36;;;;;;;2.80;1.50;;;;;;;19.03;46.84;100563.22;4233530;27;20040;-55
2022/01/06 04:58:37;;;;;;;5.90;1.60;;;;;;;19.10;46.84;100556.53;4241422;27;20050;-56
2022/01/06 05:00:39;;;;;;;7.20;3.80;;;;;;;19.01;46.64;100547.94;4238648;27;20088;-54
2022/01/06 05:02:40;;;;;;;10.13;5.43;;;;;;;19.08;46.85;100564.31;4244130;27;20088;-53
2022/01/06 05:04:41;;;;;;;13.32;8.00;;;;;;;19.08;46.82;100570.69;4235245;27;20073;-52
2022/01/06 05:06:43;;;;;;;18.60;11.05;;;;;;;19.08;46.84;100565.16;4231869;27;20126;-53
2022/01/06 05:08:44;;;;;;;28.30;16.55;;;;;;;19.06;46.93;100567.38;4232667;27;20043;-50
2022/01/06 05:10:46;;;;;;;34.25;23.20;;;;;;;19.05;46.85;100560.16;4229539;27;20040;-53
2022/01/06 05:12:47;;;;;;;42.75;28.25;;;;;;;19.04;46.53;100562.09;4235312;27;20036;-55
2022/01/06 05:14:48;;;;;;;50.53;32.72;;;;;;;19.05;47.00;100551.81;4249929;27;20104;-55
2022/01/06 05:16:50;;;;;;;56.72;36.95;;;;;;;18.98;46.71;100545.75;4236290;27;20104;-55
2022/01/06 05:18:54;;;;;;;57.28;37.97;;;;;;;18.99;46.90;100536.31;4232068;27;20440;-54
2022/01/06 05:20:56;;;;;;;63.13;41.53;;;;;;;19.02;46.62;100555.19;4233238;27;20035;-51
2022/01/06 05:22:58;;;;;;;63.30;42.10;;;;;;;19.02;46.62;100557.94;4241712;27;20046;-54
2022/01/06 05:24:59;;;;;;;65.97;43.97;;;;;;;19.02;46.87;100555.19;4236140;27;20095;-52
2022/01/06 05:27:01;;;;;;;70.43;45.47;;;;;;;19.01;46.70;100553.47;4242134;27;20126;-51
2022/01/06 05:29:02;;;;;;;74.68;48.63;;;;;;;19.00;46.89;100557.38;4234602;27;20047;-49
2022/01/06 05:31:04;;;;;;;75.65;50.15;;;;;;;19.00;46.95;100562.91;4234101;27;20490;-54
2022/01/06 05:33:05;;;;;;;71.65;47.50;;;;;;;18.99;46.94;100567.63;4249373;27;20436;-59
2022/01/06 05:35:07;;;;;;;73.90;49.45;;;;;;;18.98;46.59;100565.16;4240236;27;20031;-53
2022/01/06 05:37:08;;;;;;;72.55;48.60;;;;;;;18.97;46.64;100569.03;4234314;27;20044;-51
2022/01/06 05:39:10;;;;;;;78.60;51.15;;;;;;;18.99;46.52;100572.34;4235006;27;20108;-55
2022/01/06 05:41:11;;;;;;;72.93;49.80;;;;;;;18.99;46.91;100578.72;4231409;27;20104;-53
2022/01/06 05:43:15;;;;;;;74.25;50.17;;;;;;;18.91;46.57;100557.09;4246643;27;20046;-52
2022/01/06 05:45:17;;;;;;;77.53;49.20;;;;;;;18.96;46.99;100564.59;4238939;27;20051;-53
2022/01/06 05:47:19;;;;;;;76.72;51.13;;;;;;;18.97;46.56;100563.50;4243006;27;20039;-54
2022/01/06 05:49:20;;;;;;;77.03;50.88;;;;;;;18.96;46.62;100556.25;4239510;27;20482;-53
2022/01/06 05:51:22;;;;;;;79.50;52.00;;;;;;;18.97;46.85;100567.09;4235971;27;20321;-50
2022/01/06 05:53:23;;;;;;;79.53;49.67;;;;;;;18.96;46.97;100573.72;4231131;27;20544;-54
2022/01/06 05:55:25;;;;;;;74.85;50.90;;;;;;;18.95;47.02;100576.78;4238634;27;20044;-54
2022/01/06 05:57:29;;;;;;;78.60;50.60;;;;;;;18.96;46.71;100575.66;4247120;27;20116;-54
2022/01/06 05:59:32;;;;;;;77.10;49.83;;;;;;;18.96;47.03;100578.44;4233498;27;20039;-55
2022/01/06 06:01:33;;;;;;;72.88;50.10;;;;;;;18.95;47.07;100582.34;4247865;27;20088;-52
2022/01/06 06:03:35;;;;;;;70.53;49.13;;;;;;;18.94;46.95;100589.81;4239238;27;20023;-55
2022/01/06 06:05:40;;;;;;;76.10;49.42;;;;;;;18.94;46.95;100589.00;4247976;27;20039;-54
2022/01/06 06:07:41;;;;;;;73.85;49.15;;;;;;;18.93;46.77;100595.66;4245846;27;20108;-51
2022/01/06 06:09:43;;;;;;;75.10;48.35;;;;;;;18.90;47.10;100596.19;4235258;27;20039;-54
2022/01/06 06:11:44;;;;;;;73.53;47.38;;;;;;;18.93;47.10;100593.72;4234006;27;20112;-53
2022/01/06 06:13:46;;;;;;;72.88;49.30;;;;;;;18.92;46.80;100589.28;4222341;28;20044;-53
2022/01/06 06:15:47;;;;;;;71.57;47.30;;;;;;;18.90;46.66;100585.09;4229729;28;20039;-52
2022/01/06 06:17:49;;;;;;;72.90;47.83;;;;;;;18.85;46.93;100576.78;4230768;28;20035;-52
2022/01/06 06:19:51;;;;;;;68.97;46.20;;;;;;;18.90;47.09;100585.94;4231477;27;20116;-52
2022/01/06 06:21:55;;;;;;;67.25;44.42;;;;;;;18.89;47.07;100594.53;4231083;28;20036;-53
2022/01/06 06:23:56;;;;;;;66.32;45.92;;;;;;;18.86;46.70;100589.53;4231412;28;20372;-55
2022/01/06 06:25:58;;;;;;;66.60;44.05;;;;;;;18.88;47.08;100601.19;4231070;28;20043;-53
2022/01/06 06:27:59;;;;;;;65.50;44.80;;;;;;;18.86;47.16;100606.16;4231181;28;20048;-54
2022/01/06 06:30:01;;;;;;;62.50;42.45;;;;;;;18.81;47.44;100597.84;4229366;28;20105;-53
2022/01/06 06:32:02;;;;;;;63.50;42.45;;;;;;;18.79;47.42;100604.50;4231127;28;20040;-53
2022/01/06 06:34:04;;;;;;;61.95;40.97;;;;;;;18.73;47.22;100601.97;4221951;28;20043;-53
2022/01/06 06:36:05;;;;;;;59.30;40.78;;;;;;;18.76;47.67;100606.97;4224693;28;20369;-53
2022/01/06 06:38:12;;;;;;;63.80;41.72;;;;;;;18.76;47.56;100598.66;4228402;28;20100;-55
2022/01/06 06:40:14;;;;;;;60.35;40.45;;;;;;;18.85;47.74;100598.97;4231699;27;20031;-53
2022/01/06 06:42:15;;;;;;;61.38;38.67;;;;;;;18.90;47.69;100596.19;4228663;28;20093;-54
2022/01/06 06:44:17;;;;;;;68.88;38.65;;;;;;;18.93;47.73;100602.03;4226714;28;20035;-52
2022/01/06 06:46:18;;;;;;;91.68;38.50;;;;;;;18.99;48.09;100598.13;4223483;28;20467;-56
2022/01/06 06:48:24;;;;;;;60.15;37.88;;;;;;;19.02;48.20;100603.16;4224663;28;20089;-56
2022/01/06 06:50:26;;;;;;;59.90;36.70;;;;;;;19.04;48.38;100602.84;4214682;28;20081;-57
2022/01/06 06:52:27;;;;;;;64.47;36.60;;;;;;;18.95;48.21;100598.97;4215164;28;20025;-57
2022/01/06 06:54:29;;;;;;;56.53;35.03;;;;;;;19.04;48.17;100619.50;4214515;28;20317;-59
2022/01/06 06:56:30;;;;;;;59.00;34.83;;;;;;;19.02;48.13;100621.72;4215152;28;20066;-57
2022/01/06 06:58:34;;;;;;;55.20;33.72;;;;;;;19.07;48.47;100651.41;4220604;28;20097;-55
2022/01/06 07:00:36;;;;;;;47.07;31.47;;;;;;;19.08;48.65;100636.44;4215164;28;20023;-56
2022/01/06 07:02:37;;;;;;;58.63;31.17;;;;;;;19.21;50.49;100636.72;4227790;28;20044;-55
2022/01/06 07:04:39;;;;;;;57.60;31.10;;;;;;;19.33;50.71;100655.84;4212202;28;20783;-57
2022/01/06 07:06:40;;;;;;;56.38;32.03;;;;;;;19.35;51.13;100641.72;4231581;27;20452;-56
2022/01/06 07:08:41;;;;;;;60.97;30.33;;;;;;;19.36;51.06;100640.59;4222624;28;20041;-57
2022/01/06 07:10:45;;;;;;;61.28;31.13;;;;;;;19.36;51.70;100644.19;4235552;27;20080;-56
2022/01/06 07:12:47;;;;;;;63.88;31.30;;;;;;;19.37;51.83;100656.13;4230733;27;20031;-56
2022/01/06 07:14:48;;;;;;;54.58;29.30;;;;;;;19.37;51.60;100650.56;4234196;27;20043;-55
2022/01/06 07:16:50;;;;;;;53.20;30.02;;;;;;;19.40;51.42;100633.38;4224736;28;20040;-57
2022/01/06 07:18:51;;;;;;;53.97;29.83;;;;;;;19.43;52.12;100649.50;4228219;28;20043;-55
2022/01/06 07:20:53;;;;;;;54.83;28.13;;;;;;;19.45;52.13;100669.44;4228823;28;20425;-56
2022/01/06 07:22:57;;;;;;;62.50;29.55;;;;;;;19.47;52.08;100672.78;4229453;28;20128;-57
2022/01/06 07:25:01;;;;;;;46.38;26.98;;;;;;;19.43;52.15;100677.25;4228785;28;20039;-56
2022/01/06 07:27:04;;;;;;;46.10;27.33;;;;;;;19.48;52.14;100680.00;4228340;28;20036;-57
2022/01/06 07:29:05;;;;;;;43.90;27.45;;;;;;;19.50;52.17;100678.59;4228446;28;20039;-59
2022/01/06 07:31:07;;;;;;;44.65;27.65;;;;;;;19.50;52.17;100684.16;4228607;28;20036;-56
2022/01/06 07:33:09;;;;;;;50.80;26.83;;;;;;;19.52;52.04;100690.28;4225620;28;20093;-56
2022/01/06 07:35:10;;;;;;;41.80;25.95;;;;;;;19.51;52.11;100688.59;4223505;28;20448;-59
2022/01/06 07:37:12;;;;;;;40.28;26.50;;;;;;;19.54;52.17;100692.75;4222004;27;20027;-58
2022/01/06 07:39:16;;;;;;;48.60;25.52;;;;;;;19.54;51.85;100690.00;4221898;27;20039;-58
2022/01/06 07:41:17;;;;;;;41.57;25.03;;;;;;;19.54;52.15;100703.88;4238080;27;20569;-58
2022/01/06 07:43:19;;;;;;;42.75;25.75;;;;;;;19.54;52.19;100713.03;4245310;27;20039;-57
2022/01/06 07:45:20;;;;;;;43.10;24.25;;;;;;;19.56;51.96;100698.84;4235798;27;20104;-58
2022/01/06 07:47:22;;;;;;;44.00;24.55;;;;;;;19.57;52.08;100706.09;4232169;27;20453;-57
2022/01/06 07:49:23;;;;;;;38.83;23.23;;;;;;;19.59;51.98;100714.97;4232662;27;20440;-58
2022/01/06 07:51:26;;;;;;;36.95;22.92;;;;;;;19.56;52.32;100701.63;4228314;27;20036;-57
2022/01/06 07:53:27;;;;;;;38.08;21.98;;;;;;;19.56;52.12;100709.97;4236426;27;20023;-56
2022/01/06 07:55:29;;;;;;;36.30;21.58;;;;;;;19.61;52.30;100721.13;4229347;27;20078;-57
2022/01/06 07:57:30;;;;;;;37.90;22.58;;;;;;;19.61;52.40;100723.91;4233153;27;20425;-59
2022/01/06 07:59:32;;;;;;;39.83;21.83;;;;;;;19.62;52.53;100714.44;4238748;27;20031;-57
2022/01/06 08:01:33;;;;;;;42.33;21.83;;;;;;;19.55;52.34;100714.69;4237419;27;20039;-58
2022/01/06 08:03:35;;;;;;;33.15;20.98;;;;;;;19.63;52.12;100731.94;4231193;27;20035;-58
2022/01/06 08:05:36;;;;;;;39.50;21.20;;;;;;;19.62;52.43;100733.88;4231273;28;20056;-58
2022/01/06 08:07:38;;;;;;;35.08;20.40;;;;;;;19.57;52.13;100725.53;4235769;27;20428;-57
2022/01/06 08:09:45;;;;;;;35.53;20.75;;;;;;;19.64;52.29;100734.44;4230790;27;20028;-58
2022/01/06 08:11:46;;;;;;;36.30;19.42;;;;;;;19.62;52.05;100733.88;4232038;28;20096;-58
2022/01/06 08:13:50;;;;;;;35.80;19.20;;;;;;;19.61;52.14;100740.56;4241558;28;20047;-58
2022/01/06 08:15:52;;;;;;;34.17;18.98;;;;;;;19.63;52.12;100748.59;4232990;28;20089;-58
2022/01/06 08:17:56;;;;;;;31.13;18.60;;;;;;;19.64;52.04;100753.03;4229289;28;20104;-60
2022/01/06 08:19:57;;;;;;;27.75;18.20;;;;;;;19.63;52.32;100752.19;4236192;28;20108;-59
2022/01/06 08:21:59;;;;;;;32.05;18.80;;;;;;;19.65;52.24;100754.69;4215016;28;20088;-59
2022/01/06 08:24:00;;;;;;;36.38;19.00;;;;;;;19.65;52.30;100754.69;4228124;28;20085;-58
2022/01/06 08:26:02;;;;;;;33.03;18.65;;;;;;;19.64;52.30;100753.03;4210696;28;20133;-57
2022/01/06 08:28:07;;;;;;;32.13;18.02;;;;;;;19.64;52.04;100751.06;4224893;28;20476;-58
2022/01/06 08:30:09;;;;;;;30.80;16.42;;;;;;;19.62;52.27;100750.53;4226515;28;20112;-59
2022/01/06 08:32:11;;;;;;;30.48;16.40;;;;;;;19.64;52.33;100748.31;4233252;28;20084;-58
2022/01/06 08:34:15;;;;;;;27.45;16.48;;;;;;;19.64;52.13;100745.53;4233445;28;20040;-58
2022/01/06 08:36:16;;;;;;;28.65;17.75;;;;;;;19.63;51.96;100754.97;4233814;28;20097;-56
2022/01/06 08:38:18;;;;;;;30.88;16.67;;;;;;;19.63;52.39;100752.19;4233454;28;20044;-57
2022/01/06 08:40:19;;;;;;;23.13;15.55;;;;;;;19.63;52.34;100759.69;4233696;28;20040;-58
2022/01/06 08:42:21;;;;;;;22.17;14.93;;;;;;;19.63;52.02;100771.63;4234201;28;20373;-57
2022/01/06 08:44:22;;;;;;;24.42;15.02;;;;;;;19.46;52.18;100743.25;4233887;28;20032;-57
2022/01/06 08:46:26;;;;;;;25.58;15.75;;;;;;;19.64;52.01;100772.47;4230572;27;20092;-57
2022/01/06 08:48:30;;;;;;;30.30;14.88;;;;;;;19.59;51.98;100759.38;4231285;28;20048;-57
2022/01/06 08:50:32;;;;;;;24.07;14.60;;;;;;;19.64;52.35;100767.75;4233591;28;20092;-57
2022/01/06 08:52:38;;;;;;;27.83;15.25;;;;;;;19.63;52.33;100759.69;4233485;28;20383;-57
2022/01/06 08:54:39;;;;;;;20.98;14.43;;;;;;;19.64;52.11;100773.28;4216600;28;20047;-58
2022/01/06 08:56:40;;;;;;;26.38;14.95;;;;;;;19.64;52.01;100772.47;4234455;27;20587;-58
2022/01/06 08:58:45;;;;;;;25.02;14.23;;;;;;;19.62;52.02;100769.97;4234293;28;20035;-57
2022/01/06 09:00:46;;;;;;;22.98;13.15;;;;;;;19.62;52.17;100781.06;4239785;27;20039;-59
2022/01/06 09:02:47;;;;;;;24.27;13.55;;;;;;;19.64;52.14;100778.84;4217375;28;20089;-57
2022/01/06 09:04:50;;;;;;;21.60;13.82;;;;;;;19.63;51.96;100779.97;4230607;27;20039;-56
2022/01/06 09:06:51;;;;;;;21.27;12.80;;;;;;;19.63;52.04;100782.72;4233563;28;20117;-57
2022/01/06 09:08:55;;;;;;;21.45;15.02;;;;;;;19.63;52.05;100787.47;4223911;28;20069;-58
2022/01/06 09:10:57;;;;;;;20.45;12.20;;;;;;;19.63;52.31;100788.28;4217096;28;20044;-56
2022/01/06 09:12:58;;;;;;;22.13;13.50;;;;;;;19.62;51.89;100797.72;4216571;28;20043;-57
2022/01/06 09:15:00;;;;;;;18.15;11.65;;;;;;;19.62;52.29;100802.44;4218874;28;20105;-56
2022/01/06 09:17:04;;;;;;;21.80;11.68;;;;;;;19.61;52.32;100812.72;4216517;28;20093;-57
2022/01/06 09:19:06;;;;;;;21.05;12.73;;;;;;;19.63;52.11;100809.66;4215533;28;20043;-57
2022/01/06 09:21:08;;;;;;;21.70;11.95;;;;;;;19.58;52.14;100806.84;4226948;28;20073;-58
2022/01/06 09:23:10;;;;;;;17.48;11.43;;;;;;;19.62;52.15;100819.94;4233133;28;20482;-59
2022/01/06 09:25:13;;;;;;;18.02;11.73;;;;;;;19.63;52.32;100826.31;4232799;28;20494;-58
2022/01/06 09:27:15;;;;;;;18.65;11.38;;;;;;;19.64;52.13;100823.25;4232907;28;20027;-57
2022/01/06 09:29:16;;;;;;;21.27;11.70;;;;;;;19.63;52.26;100827.16;4232098;28;20039;-57